sensor_id;sensor_type;location;lat;lon;timestamp;P1;durP1;ratioP1;P2;durP2;ratioP2
53961;SDS011;39868;53.398;6.564;2023-12-20T00:01:04;19.70;;;18.50;;
53961;SDS011;39868;53.398;6.564;2023-12-20T00:03:31;19.25;;;18.15;;
53961;SDS011;39868;53.398;6.564;2023-12-20T00:06:08;19.35;;;18.25;;
53961;SDS011;39868;53.398;6.564;2023-12-20T00:08:36;19.45;;;18.10;;
53961;SDS011;39868;53.398;6.564;2023-12-20T00:11:04;19.00;;;17.67;;
53961;SDS011;39868;53.398;6.564;2023-12-20T00:13:31;19.33;;;18.23;;
53961;SDS011;39868;53.398;6.564;2023-12-20T00:15:58;18.63;;;17.73;;
53961;SDS011;39868;53.398;6.564;2023-12-20T00:18:26;18.83;;;17.73;;
53961;SDS011;39868;53.398;6.564;2023-12-20T00:20:53;18.85;;;17.50;;
53961;SDS011;39868;53.398;6.564;2023-12-20T00:23:20;18.27;;;17.15;;
53961;SDS011;39868;53.398;6.564;2023-12-20T00:25:49;19.02;;;17.30;;
53961;SDS011;39868;53.398;6.564;2023-12-20T00:28:17;18.50;;;17.20;;
53961;SDS011;39868;53.398;6.564;2023-12-20T00:30:44;17.35;;;16.55;;
53961;SDS011;39868;53.398;6.564;2023-12-20T00:33:12;17.85;;;16.83;;
53961;SDS011;39868;53.398;6.564;2023-12-20T00:35:39;17.48;;;16.67;;
53961;SDS011;39868;53.398;6.564;2023-12-20T00:38:07;17.45;;;16.60;;
53961;SDS011;39868;53.398;6.564;2023-12-20T00:40:35;18.30;;;17.30;;
53961;SDS011;39868;53.398;6.564;2023-12-20T00:43:02;18.52;;;17.60;;
53961;SDS011;39868;53.398;6.564;2023-12-20T00:45:30;19.40;;;18.13;;
53961;SDS011;39868;53.398;6.564;2023-12-20T00:47:57;19.88;;;18.08;;
53961;SDS011;39868;53.398;6.564;2023-12-20T00:50:26;19.20;;;18.10;;
53961;SDS011;39868;53.398;6.564;2023-12-20T00:52:56;19.90;;;18.60;;
53961;SDS011;39868;53.398;6.564;2023-12-20T00:55:23;19.85;;;18.65;;
53961;SDS011;39868;53.398;6.564;2023-12-20T00:57:50;19.75;;;18.65;;
53961;SDS011;39868;53.398;6.564;2023-12-20T01:00:19;19.33;;;18.02;;
53961;SDS011;39868;53.398;6.564;2023-12-20T01:02:46;20.02;;;18.83;;
53961;SDS011;39868;53.398;6.564;2023-12-20T01:05:15;19.60;;;18.50;;
53961;SDS011;39868;53.398;6.564;2023-12-20T01:07:44;20.95;;;19.17;;
53961;SDS011;39868;53.398;6.564;2023-12-20T01:10:12;19.88;;;18.63;;
53961;SDS011;39868;53.398;6.564;2023-12-20T01:12:39;19.65;;;18.55;;
53961;SDS011;39868;53.398;6.564;2023-12-20T01:15:06;19.80;;;18.80;;
53961;SDS011;39868;53.398;6.564;2023-12-20T01:17:34;20.50;;;19.10;;
53961;SDS011;39868;53.398;6.564;2023-12-20T01:20:01;20.00;;;18.80;;
53961;SDS011;39868;53.398;6.564;2023-12-20T01:22:29;19.40;;;18.35;;
53961;SDS011;39868;53.398;6.564;2023-12-20T01:24:56;20.40;;;19.10;;
53961;SDS011;39868;53.398;6.564;2023-12-20T01:27:23;20.40;;;18.95;;
53961;SDS011;39868;53.398;6.564;2023-12-20T01:29:50;20.73;;;19.17;;
53961;SDS011;39868;53.398;6.564;2023-12-20T01:32:18;20.80;;;19.40;;
53961;SDS011;39868;53.398;6.564;2023-12-20T01:34:45;20.25;;;18.92;;
53961;SDS011;39868;53.398;6.564;2023-12-20T01:37:12;19.63;;;18.60;;
53961;SDS011;39868;53.398;6.564;2023-12-20T01:39:40;19.73;;;18.38;;
53961;SDS011;39868;53.398;6.564;2023-12-20T01:42:07;19.50;;;18.50;;
53961;SDS011;39868;53.398;6.564;2023-12-20T01:44:35;19.80;;;18.60;;
53961;SDS011;39868;53.398;6.564;2023-12-20T01:47:02;19.55;;;18.35;;
53961;SDS011;39868;53.398;6.564;2023-12-20T01:49:29;18.95;;;17.92;;
53961;SDS011;39868;53.398;6.564;2023-12-20T01:51:57;19.27;;;18.15;;
53961;SDS011;39868;53.398;6.564;2023-12-20T01:54:24;21.00;;;19.73;;
53961;SDS011;39868;53.398;6.564;2023-12-20T01:56:52;21.70;;;19.73;;
53961;SDS011;39868;53.398;6.564;2023-12-20T01:59:19;20.55;;;19.48;;
53961;SDS011;39868;53.398;6.564;2023-12-20T02:01:48;20.70;;;19.48;;
53961;SDS011;39868;53.398;6.564;2023-12-20T02:04:16;21.55;;;20.23;;
53961;SDS011;39868;53.398;6.564;2023-12-20T02:06:43;20.85;;;19.85;;
53961;SDS011;39868;53.398;6.564;2023-12-20T02:09:14;21.20;;;19.73;;
53961;SDS011;39868;53.398;6.564;2023-12-20T02:11:42;21.80;;;19.65;;
53961;SDS011;39868;53.398;6.564;2023-12-20T02:14:10;21.35;;;20.02;;
53961;SDS011;39868;53.398;6.564;2023-12-20T02:16:37;20.98;;;19.60;;
53961;SDS011;39868;53.398;6.564;2023-12-20T02:19:05;21.48;;;19.92;;
53961;SDS011;39868;53.398;6.564;2023-12-20T02:21:39;21.35;;;19.77;;
53961;SDS011;39868;53.398;6.564;2023-12-20T02:24:07;21.27;;;19.80;;
53961;SDS011;39868;53.398;6.564;2023-12-20T02:26:34;22.30;;;20.42;;
53961;SDS011;39868;53.398;6.564;2023-12-20T02:29:01;20.70;;;19.40;;
53961;SDS011;39868;53.398;6.564;2023-12-20T02:31:29;21.40;;;19.73;;
53961;SDS011;39868;53.398;6.564;2023-12-20T02:33:56;21.33;;;19.55;;
53961;SDS011;39868;53.398;6.564;2023-12-20T02:36:24;20.33;;;19.00;;
53961;SDS011;39868;53.398;6.564;2023-12-20T02:38:51;21.00;;;19.10;;
53961;SDS011;39868;53.398;6.564;2023-12-20T02:41:18;20.30;;;18.95;;
53961;SDS011;39868;53.398;6.564;2023-12-20T02:43:45;21.73;;;19.42;;
53961;SDS011;39868;53.398;6.564;2023-12-20T02:46:13;20.98;;;19.60;;
53961;SDS011;39868;53.398;6.564;2023-12-20T02:48:43;21.02;;;19.23;;
53961;SDS011;39868;53.398;6.564;2023-12-20T02:51:11;20.52;;;18.88;;
53961;SDS011;39868;53.398;6.564;2023-12-20T02:53:38;21.05;;;19.40;;
53961;SDS011;39868;53.398;6.564;2023-12-20T02:56:05;19.92;;;18.38;;
53961;SDS011;39868;53.398;6.564;2023-12-20T02:58:33;20.17;;;18.60;;
53961;SDS011;39868;53.398;6.564;2023-12-20T03:01:00;20.75;;;19.10;;
53961;SDS011;39868;53.398;6.564;2023-12-20T03:03:27;19.98;;;18.65;;
53961;SDS011;39868;53.398;6.564;2023-12-20T03:05:54;20.15;;;18.77;;
53961;SDS011;39868;53.398;6.564;2023-12-20T03:08:22;21.02;;;19.30;;
53961;SDS011;39868;53.398;6.564;2023-12-20T03:10:49;20.40;;;18.95;;
53961;SDS011;39868;53.398;6.564;2023-12-20T03:13:17;21.50;;;19.23;;
53961;SDS011;39868;53.398;6.564;2023-12-20T03:15:45;20.65;;;19.00;;
53961;SDS011;39868;53.398;6.564;2023-12-20T03:18:12;21.70;;;19.70;;
53961;SDS011;39868;53.398;6.564;2023-12-20T03:20:40;21.40;;;19.65;;
53961;SDS011;39868;53.398;6.564;2023-12-20T03:23:08;21.90;;;20.30;;
53961;SDS011;39868;53.398;6.564;2023-12-20T03:25:35;21.08;;;19.52;;
53961;SDS011;39868;53.398;6.564;2023-12-20T03:28:03;20.83;;;19.05;;
53961;SDS011;39868;53.398;6.564;2023-12-20T03:30:30;19.50;;;18.15;;
53961;SDS011;39868;53.398;6.564;2023-12-20T03:32:58;19.27;;;17.67;;
53961;SDS011;39868;53.398;6.564;2023-12-20T03:35:25;18.80;;;17.60;;
53961;SDS011;39868;53.398;6.564;2023-12-20T03:37:52;19.27;;;17.70;;
53961;SDS011;39868;53.398;6.564;2023-12-20T03:40:20;19.27;;;17.73;;
53961;SDS011;39868;53.398;6.564;2023-12-20T03:42:47;18.92;;;17.42;;
53961;SDS011;39868;53.398;6.564;2023-12-20T03:45:14;18.90;;;17.25;;
53961;SDS011;39868;53.398;6.564;2023-12-20T03:47:42;19.40;;;18.15;;
53961;SDS011;39868;53.398;6.564;2023-12-20T03:50:09;19.80;;;18.20;;
53961;SDS011;39868;53.398;6.564;2023-12-20T03:52:37;20.42;;;18.38;;
53961;SDS011;39868;53.398;6.564;2023-12-20T03:55:04;20.10;;;18.42;;
53961;SDS011;39868;53.398;6.564;2023-12-20T03:57:32;19.45;;;17.88;;
53961;SDS011;39868;53.398;6.564;2023-12-20T03:59:59;19.17;;;17.67;;
53961;SDS011;39868;53.398;6.564;2023-12-20T04:02:26;19.83;;;18.02;;
53961;SDS011;39868;53.398;6.564;2023-12-20T04:04:53;19.52;;;18.13;;
53961;SDS011;39868;53.398;6.564;2023-12-20T04:07:21;20.10;;;18.60;;
53961;SDS011;39868;53.398;6.564;2023-12-20T04:09:48;20.52;;;18.75;;
53961;SDS011;39868;53.398;6.564;2023-12-20T04:12:15;19.63;;;18.17;;
53961;SDS011;39868;53.398;6.564;2023-12-20T04:14:43;19.90;;;18.48;;
53961;SDS011;39868;53.398;6.564;2023-12-20T04:17:10;19.67;;;18.17;;
53961;SDS011;39868;53.398;6.564;2023-12-20T04:19:37;20.83;;;18.88;;
53961;SDS011;39868;53.398;6.564;2023-12-20T04:22:04;21.50;;;19.20;;
53961;SDS011;39868;53.398;6.564;2023-12-20T04:24:31;20.35;;;18.58;;
53961;SDS011;39868;53.398;6.564;2023-12-20T04:26:59;20.25;;;18.33;;
53961;SDS011;39868;53.398;6.564;2023-12-20T04:29:26;19.73;;;17.92;;
53961;SDS011;39868;53.398;6.564;2023-12-20T04:31:53;20.20;;;18.55;;
53961;SDS011;39868;53.398;6.564;2023-12-20T04:34:22;19.42;;;18.25;;
53961;SDS011;39868;53.398;6.564;2023-12-20T04:36:49;19.48;;;18.05;;
53961;SDS011;39868;53.398;6.564;2023-12-20T04:39:16;19.95;;;17.83;;
53961;SDS011;39868;53.398;6.564;2023-12-20T04:41:44;19.83;;;17.88;;
53961;SDS011;39868;53.398;6.564;2023-12-20T04:44:11;20.00;;;18.10;;
53961;SDS011;39868;53.398;6.564;2023-12-20T04:46:38;18.95;;;17.55;;
53961;SDS011;39868;53.398;6.564;2023-12-20T04:49:05;19.35;;;17.30;;
53961;SDS011;39868;53.398;6.564;2023-12-20T04:51:33;18.83;;;17.50;;
53961;SDS011;39868;53.398;6.564;2023-12-20T04:54:01;19.17;;;17.73;;
53961;SDS011;39868;53.398;6.564;2023-12-20T04:56:29;20.30;;;18.08;;
53961;SDS011;39868;53.398;6.564;2023-12-20T04:58:56;18.73;;;17.40;;
53961;SDS011;39868;53.398;6.564;2023-12-20T05:01:23;19.23;;;17.50;;
53961;SDS011;39868;53.398;6.564;2023-12-20T05:03:50;18.98;;;17.42;;
53961;SDS011;39868;53.398;6.564;2023-12-20T05:06:18;19.55;;;17.92;;
53961;SDS011;39868;53.398;6.564;2023-12-20T05:08:45;19.52;;;17.65;;
53961;SDS011;39868;53.398;6.564;2023-12-20T05:11:12;18.90;;;17.00;;
53961;SDS011;39868;53.398;6.564;2023-12-20T05:13:40;19.65;;;18.30;;
53961;SDS011;39868;53.398;6.564;2023-12-20T05:16:15;19.42;;;18.00;;
53961;SDS011;39868;53.398;6.564;2023-12-20T05:18:45;19.67;;;18.27;;
53961;SDS011;39868;53.398;6.564;2023-12-20T05:21:14;19.55;;;17.95;;
53961;SDS011;39868;53.398;6.564;2023-12-20T05:23:41;19.88;;;18.15;;
53961;SDS011;39868;53.398;6.564;2023-12-20T05:26:08;20.20;;;18.60;;
53961;SDS011;39868;53.398;6.564;2023-12-20T05:28:36;20.60;;;18.83;;
53961;SDS011;39868;53.398;6.564;2023-12-20T05:31:03;21.35;;;19.50;;
53961;SDS011;39868;53.398;6.564;2023-12-20T05:33:30;21.25;;;18.13;;
53961;SDS011;39868;53.398;6.564;2023-12-20T05:35:57;19.38;;;18.15;;
53961;SDS011;39868;53.398;6.564;2023-12-20T05:38:25;20.35;;;18.25;;
53961;SDS011;39868;53.398;6.564;2023-12-20T05:40:52;21.83;;;18.17;;
53961;SDS011;39868;53.398;6.564;2023-12-20T05:43:19;19.63;;;17.65;;
53961;SDS011;39868;53.398;6.564;2023-12-20T05:45:47;19.60;;;17.70;;
53961;SDS011;39868;53.398;6.564;2023-12-20T05:48:14;18.17;;;17.13;;
53961;SDS011;39868;53.398;6.564;2023-12-20T05:50:41;19.88;;;17.95;;
53961;SDS011;39868;53.398;6.564;2023-12-20T05:53:09;19.10;;;17.33;;
53961;SDS011;39868;53.398;6.564;2023-12-20T05:55:36;19.20;;;17.55;;
53961;SDS011;39868;53.398;6.564;2023-12-20T05:58:03;19.73;;;18.02;;
53961;SDS011;39868;53.398;6.564;2023-12-20T06:00:31;19.77;;;18.15;;
53961;SDS011;39868;53.398;6.564;2023-12-20T06:02:59;22.67;;;18.08;;
53961;SDS011;39868;53.398;6.564;2023-12-20T06:05:26;19.95;;;18.23;;
53961;SDS011;39868;53.398;6.564;2023-12-20T06:07:53;20.73;;;17.35;;
53961;SDS011;39868;53.398;6.564;2023-12-20T06:10:23;21.88;;;18.02;;
53961;SDS011;39868;53.398;6.564;2023-12-20T06:12:50;19.38;;;17.45;;
53961;SDS011;39868;53.398;6.564;2023-12-20T06:15:18;19.45;;;17.70;;
53961;SDS011;39868;53.398;6.564;2023-12-20T06:17:45;18.58;;;17.23;;
53961;SDS011;39868;53.398;6.564;2023-12-20T06:20:15;20.63;;;18.20;;
53961;SDS011;39868;53.398;6.564;2023-12-20T06:22:42;19.10;;;17.90;;
53961;SDS011;39868;53.398;6.564;2023-12-20T06:25:09;18.52;;;17.05;;
53961;SDS011;39868;53.398;6.564;2023-12-20T06:27:37;20.70;;;17.98;;
53961;SDS011;39868;53.398;6.564;2023-12-20T06:30:04;22.05;;;18.77;;
53961;SDS011;39868;53.398;6.564;2023-12-20T06:32:32;19.98;;;17.98;;
53961;SDS011;39868;53.398;6.564;2023-12-20T06:35:01;24.38;;;18.35;;
53961;SDS011;39868;53.398;6.564;2023-12-20T06:37:28;19.65;;;18.00;;
53961;SDS011;39868;53.398;6.564;2023-12-20T06:39:56;23.40;;;18.95;;
53961;SDS011;39868;53.398;6.564;2023-12-20T06:42:23;20.02;;;18.25;;
53961;SDS011;39868;53.398;6.564;2023-12-20T06:44:50;21.25;;;19.27;;
53961;SDS011;39868;53.398;6.564;2023-12-20T06:47:18;26.45;;;19.98;;
53961;SDS011;39868;53.398;6.564;2023-12-20T06:49:45;21.17;;;19.35;;
53961;SDS011;39868;53.398;6.564;2023-12-20T06:52:12;21.13;;;19.10;;
53961;SDS011;39868;53.398;6.564;2023-12-20T06:54:39;20.83;;;19.27;;
53961;SDS011;39868;53.398;6.564;2023-12-20T06:57:07;22.27;;;20.02;;
53961;SDS011;39868;53.398;6.564;2023-12-20T06:59:37;21.05;;;19.45;;
53961;SDS011;39868;53.398;6.564;2023-12-20T07:02:08;21.55;;;19.35;;
53961;SDS011;39868;53.398;6.564;2023-12-20T07:07:08;20.00;;;18.30;;
53961;SDS011;39868;53.398;6.564;2023-12-20T07:09:35;20.13;;;18.30;;
53961;SDS011;39868;53.398;6.564;2023-12-20T07:12:03;20.38;;;18.60;;
53961;SDS011;39868;53.398;6.564;2023-12-20T07:14:31;21.08;;;18.42;;
53961;SDS011;39868;53.398;6.564;2023-12-20T07:16:58;20.90;;;18.73;;
53961;SDS011;39868;53.398;6.564;2023-12-20T07:19:25;20.70;;;18.52;;
53961;SDS011;39868;53.398;6.564;2023-12-20T07:21:53;20.42;;;18.55;;
53961;SDS011;39868;53.398;6.564;2023-12-20T07:24:20;22.25;;;18.98;;
53961;SDS011;39868;53.398;6.564;2023-12-20T07:26:47;20.33;;;18.75;;
53961;SDS011;39868;53.398;6.564;2023-12-20T07:29:15;24.33;;;18.40;;
53961;SDS011;39868;53.398;6.564;2023-12-20T07:31:42;19.90;;;17.83;;
53961;SDS011;39868;53.398;6.564;2023-12-20T07:34:09;26.05;;;18.65;;
53961;SDS011;39868;53.398;6.564;2023-12-20T07:36:37;19.92;;;17.98;;
53961;SDS011;39868;53.398;6.564;2023-12-20T07:39:04;19.33;;;17.65;;
53961;SDS011;39868;53.398;6.564;2023-12-20T07:41:31;23.80;;;18.00;;
53961;SDS011;39868;53.398;6.564;2023-12-20T07:43:58;20.33;;;18.17;;
53961;SDS011;39868;53.398;6.564;2023-12-20T07:46:27;19.70;;;17.70;;
53961;SDS011;39868;53.398;6.564;2023-12-20T07:48:57;20.25;;;18.17;;
53961;SDS011;39868;53.398;6.564;2023-12-20T07:51:24;19.67;;;17.63;;
53961;SDS011;39868;53.398;6.564;2023-12-20T07:53:52;19.20;;;17.55;;
53961;SDS011;39868;53.398;6.564;2023-12-20T07:56:19;19.58;;;17.50;;
53961;SDS011;39868;53.398;6.564;2023-12-20T07:58:47;17.38;;;16.08;;
53961;SDS011;39868;53.398;6.564;2023-12-20T08:01:19;17.55;;;15.77;;
53961;SDS011;39868;53.398;6.564;2023-12-20T08:03:48;18.05;;;16.27;;
53961;SDS011;39868;53.398;6.564;2023-12-20T08:06:17;20.13;;;17.02;;
53961;SDS011;39868;53.398;6.564;2023-12-20T08:08:45;19.52;;;17.60;;
53961;SDS011;39868;53.398;6.564;2023-12-20T08:11:23;19.60;;;17.05;;
53961;SDS011;39868;53.398;6.564;2023-12-20T08:13:51;16.85;;;15.55;;
53961;SDS011;39868;53.398;6.564;2023-12-20T08:16:18;16.98;;;15.63;;
53961;SDS011;39868;53.398;6.564;2023-12-20T08:18:46;17.48;;;16.13;;
53961;SDS011;39868;53.398;6.564;2023-12-20T08:21:14;17.90;;;16.55;;
53961;SDS011;39868;53.398;6.564;2023-12-20T08:23:41;18.15;;;16.85;;
53961;SDS011;39868;53.398;6.564;2023-12-20T08:26:09;17.83;;;16.75;;
53961;SDS011;39868;53.398;6.564;2023-12-20T08:28:36;17.23;;;15.88;;
53961;SDS011;39868;53.398;6.564;2023-12-20T08:31:04;17.20;;;16.20;;
53961;SDS011;39868;53.398;6.564;2023-12-20T08:33:31;17.67;;;16.45;;
53961;SDS011;39868;53.398;6.564;2023-12-20T08:35:59;17.95;;;16.60;;
53961;SDS011;39868;53.398;6.564;2023-12-20T08:38:26;18.90;;;17.80;;
53961;SDS011;39868;53.398;6.564;2023-12-20T08:40:54;18.88;;;17.83;;
53961;SDS011;39868;53.398;6.564;2023-12-20T08:43:21;18.77;;;17.77;;
53961;SDS011;39868;53.398;6.564;2023-12-20T08:45:48;19.52;;;17.95;;
53961;SDS011;39868;53.398;6.564;2023-12-20T08:48:15;18.83;;;17.85;;
53961;SDS011;39868;53.398;6.564;2023-12-20T08:50:43;17.52;;;16.55;;
53961;SDS011;39868;53.398;6.564;2023-12-20T08:53:10;18.20;;;16.63;;
53961;SDS011;39868;53.398;6.564;2023-12-20T08:55:38;16.95;;;15.70;;
53961;SDS011;39868;53.398;6.564;2023-12-20T08:58:05;17.52;;;16.38;;
53961;SDS011;39868;53.398;6.564;2023-12-20T09:00:34;16.98;;;15.93;;
53961;SDS011;39868;53.398;6.564;2023-12-20T09:03:02;16.63;;;15.77;;
53961;SDS011;39868;53.398;6.564;2023-12-20T09:05:29;15.82;;;15.13;;
53961;SDS011;39868;53.398;6.564;2023-12-20T09:07:57;16.75;;;15.55;;
53961;SDS011;39868;53.398;6.564;2023-12-20T09:10:24;16.33;;;15.32;;
53961;SDS011;39868;53.398;6.564;2023-12-20T09:12:52;16.92;;;15.77;;
53961;SDS011;39868;53.398;6.564;2023-12-20T09:15:25;16.92;;;15.93;;
53961;SDS011;39868;53.398;6.564;2023-12-20T09:17:53;16.45;;;15.18;;
53961;SDS011;39868;53.398;6.564;2023-12-20T09:20:20;16.17;;;15.07;;
53961;SDS011;39868;53.398;6.564;2023-12-20T09:22:50;16.58;;;15.63;;
53961;SDS011;39868;53.398;6.564;2023-12-20T09:25:17;16.15;;;15.02;;
53961;SDS011;39868;53.398;6.564;2023-12-20T09:27:45;15.98;;;14.77;;
53961;SDS011;39868;53.398;6.564;2023-12-20T09:30:12;15.73;;;14.68;;
53961;SDS011;39868;53.398;6.564;2023-12-20T09:32:53;15.15;;;14.30;;
53961;SDS011;39868;53.398;6.564;2023-12-20T09:35:21;15.77;;;14.68;;
53961;SDS011;39868;53.398;6.564;2023-12-20T09:37:49;16.40;;;15.40;;
53961;SDS011;39868;53.398;6.564;2023-12-20T09:40:19;15.45;;;14.55;;
53961;SDS011;39868;53.398;6.564;2023-12-20T09:45:19;17.25;;;16.15;;
53961;SDS011;39868;53.398;6.564;2023-12-20T09:47:49;16.85;;;15.50;;
53961;SDS011;39868;53.398;6.564;2023-12-20T09:50:19;16.50;;;15.23;;
53961;SDS011;39868;53.398;6.564;2023-12-20T09:52:49;16.00;;;14.98;;
53961;SDS011;39868;53.398;6.564;2023-12-20T09:55:17;16.42;;;14.90;;
53961;SDS011;39868;53.398;6.564;2023-12-20T09:57:47;16.05;;;14.52;;
53961;SDS011;39868;53.398;6.564;2023-12-20T10:00:15;15.32;;;14.23;;
53961;SDS011;39868;53.398;6.564;2023-12-20T10:03:07;15.43;;;14.23;;
53961;SDS011;39868;53.398;6.564;2023-12-20T10:05:35;15.30;;;13.80;;
53961;SDS011;39868;53.398;6.564;2023-12-20T10:08:02;14.90;;;13.80;;
53961;SDS011;39868;53.398;6.564;2023-12-20T10:10:30;15.57;;;14.00;;
53961;SDS011;39868;53.398;6.564;2023-12-20T10:13:11;15.20;;;13.82;;
53961;SDS011;39868;53.398;6.564;2023-12-20T10:15:40;14.27;;;13.27;;
53961;SDS011;39868;53.398;6.564;2023-12-20T10:18:09;15.02;;;13.65;;
53961;SDS011;39868;53.398;6.564;2023-12-20T10:20:37;18.73;;;14.30;;
53961;SDS011;39868;53.398;6.564;2023-12-20T10:23:06;14.98;;;13.35;;
53961;SDS011;39868;53.398;6.564;2023-12-20T10:25:34;18.67;;;14.20;;
53961;SDS011;39868;53.398;6.564;2023-12-20T10:28:12;15.43;;;14.02;;
53961;SDS011;39868;53.398;6.564;2023-12-20T10:30:41;15.20;;;13.48;;
53961;SDS011;39868;53.398;6.564;2023-12-20T10:33:09;15.35;;;13.77;;
53961;SDS011;39868;53.398;6.564;2023-12-20T10:35:38;15.98;;;13.48;;
53961;SDS011;39868;53.398;6.564;2023-12-20T10:38:11;15.05;;;13.73;;
53961;SDS011;39868;53.398;6.564;2023-12-20T10:40:41;16.38;;;14.45;;
53961;SDS011;39868;53.398;6.564;2023-12-20T10:43:09;15.77;;;14.32;;
53961;SDS011;39868;53.398;6.564;2023-12-20T10:45:38;14.80;;;13.70;;
53961;SDS011;39868;53.398;6.564;2023-12-20T10:48:05;15.05;;;13.52;;
53961;SDS011;39868;53.398;6.564;2023-12-20T10:50:34;16.70;;;13.30;;
53961;SDS011;39868;53.398;6.564;2023-12-20T10:53:05;14.65;;;13.52;;
53961;SDS011;39868;53.398;6.564;2023-12-20T10:55:33;15.60;;;14.05;;
53961;SDS011;39868;53.398;6.564;2023-12-20T10:58:01;15.30;;;14.00;;
53961;SDS011;39868;53.398;6.564;2023-12-20T11:00:34;14.98;;;13.63;;
53961;SDS011;39868;53.398;6.564;2023-12-20T11:03:08;14.02;;;12.90;;
53961;SDS011;39868;53.398;6.564;2023-12-20T11:08:51;18.05;;;13.77;;
53961;SDS011;39868;53.398;6.564;2023-12-20T11:14:53;16.23;;;13.82;;
53961;SDS011;39868;53.398;6.564;2023-12-20T11:17:27;17.38;;;13.75;;
53961;SDS011;39868;53.398;6.564;2023-12-20T11:22:26;15.50;;;13.68;;
53961;SDS011;39868;53.398;6.564;2023-12-20T11:25:09;18.67;;;13.88;;
53961;SDS011;39868;53.398;6.564;2023-12-20T11:27:41;14.63;;;13.75;;
53961;SDS011;39868;53.398;6.564;2023-12-20T11:30:15;16.15;;;14.65;;
53961;SDS011;39868;53.398;6.564;2023-12-20T11:32:44;16.92;;;15.32;;
53961;SDS011;39868;53.398;6.564;2023-12-20T11:37:40;17.05;;;15.48;;
53961;SDS011;39868;53.398;6.564;2023-12-20T11:40:12;16.95;;;15.30;;
53961;SDS011;39868;53.398;6.564;2023-12-20T11:42:42;17.77;;;15.93;;
53961;SDS011;39868;53.398;6.564;2023-12-20T11:45:11;16.95;;;15.40;;
53961;SDS011;39868;53.398;6.564;2023-12-20T11:50:14;16.10;;;14.55;;
53961;SDS011;39868;53.398;6.564;2023-12-20T11:52:42;16.10;;;14.82;;
53961;SDS011;39868;53.398;6.564;2023-12-20T11:55:09;14.90;;;13.85;;
53961;SDS011;39868;53.398;6.564;2023-12-20T11:57:37;16.70;;;15.18;;
53961;SDS011;39868;53.398;6.564;2023-12-20T12:00:05;16.83;;;15.32;;
53961;SDS011;39868;53.398;6.564;2023-12-20T12:02:39;16.77;;;15.40;;
53961;SDS011;39868;53.398;6.564;2023-12-20T12:05:06;17.10;;;15.50;;
53961;SDS011;39868;53.398;6.564;2023-12-20T12:07:34;16.90;;;15.50;;
53961;SDS011;39868;53.398;6.564;2023-12-20T12:10:02;16.65;;;15.23;;
53961;SDS011;39868;53.398;6.564;2023-12-20T12:12:30;17.05;;;15.63;;
53961;SDS011;39868;53.398;6.564;2023-12-20T12:14:59;17.02;;;15.43;;
53961;SDS011;39868;53.398;6.564;2023-12-20T12:17:26;16.00;;;14.50;;
53961;SDS011;39868;53.398;6.564;2023-12-20T12:20:01;15.63;;;14.55;;
53961;SDS011;39868;53.398;6.564;2023-12-20T12:22:31;15.82;;;14.50;;
53961;SDS011;39868;53.398;6.564;2023-12-20T12:25:09;16.10;;;14.50;;
53961;SDS011;39868;53.398;6.564;2023-12-20T12:27:41;15.80;;;14.38;;
53961;SDS011;39868;53.398;6.564;2023-12-20T12:30:09;15.70;;;14.60;;
53961;SDS011;39868;53.398;6.564;2023-12-20T12:32:40;14.75;;;13.82;;
53961;SDS011;39868;53.398;6.564;2023-12-20T12:35:08;15.18;;;13.98;;
53961;SDS011;39868;53.398;6.564;2023-12-20T12:37:39;15.00;;;13.75;;
53961;SDS011;39868;53.398;6.564;2023-12-20T12:40:14;14.60;;;13.57;;
53961;SDS011;39868;53.398;6.564;2023-12-20T12:42:44;14.45;;;13.40;;
53961;SDS011;39868;53.398;6.564;2023-12-20T12:45:12;14.13;;;13.13;;
53961;SDS011;39868;53.398;6.564;2023-12-20T12:47:39;14.43;;;13.57;;
53961;SDS011;39868;53.398;6.564;2023-12-20T12:50:07;15.13;;;13.57;;
53961;SDS011;39868;53.398;6.564;2023-12-20T12:52:35;15.15;;;14.15;;
53961;SDS011;39868;53.398;6.564;2023-12-20T12:55:03;15.25;;;14.25;;
53961;SDS011;39868;53.398;6.564;2023-12-20T12:57:32;15.38;;;14.20;;
53961;SDS011;39868;53.398;6.564;2023-12-20T13:00:00;15.25;;;14.15;;
53961;SDS011;39868;53.398;6.564;2023-12-20T13:02:30;15.82;;;14.18;;
53961;SDS011;39868;53.398;6.564;2023-12-20T13:04:57;15.55;;;14.00;;
53961;SDS011;39868;53.398;6.564;2023-12-20T13:07:25;15.70;;;14.43;;
53961;SDS011;39868;53.398;6.564;2023-12-20T13:09:53;15.48;;;14.30;;
53961;SDS011;39868;53.398;6.564;2023-12-20T13:12:20;15.48;;;13.80;;
53961;SDS011;39868;53.398;6.564;2023-12-20T13:14:48;14.95;;;13.60;;
53961;SDS011;39868;53.398;6.564;2023-12-20T13:17:15;14.52;;;13.50;;
53961;SDS011;39868;53.398;6.564;2023-12-20T13:19:43;15.23;;;13.65;;
53961;SDS011;39868;53.398;6.564;2023-12-20T13:22:10;16.13;;;13.50;;
53961;SDS011;39868;53.398;6.564;2023-12-20T13:24:37;14.80;;;13.48;;
53961;SDS011;39868;53.398;6.564;2023-12-20T13:27:05;14.70;;;13.25;;
53961;SDS011;39868;53.398;6.564;2023-12-20T13:29:32;14.40;;;13.32;;
53961;SDS011;39868;53.398;6.564;2023-12-20T13:32:02;15.27;;;13.90;;
53961;SDS011;39868;53.398;6.564;2023-12-20T13:34:30;15.43;;;14.00;;
53961;SDS011;39868;53.398;6.564;2023-12-20T13:36:58;14.50;;;13.40;;
53961;SDS011;39868;53.398;6.564;2023-12-20T13:39:26;14.27;;;13.38;;
53961;SDS011;39868;53.398;6.564;2023-12-20T13:41:53;15.45;;;13.95;;
53961;SDS011;39868;53.398;6.564;2023-12-20T13:44:23;14.68;;;13.63;;
53961;SDS011;39868;53.398;6.564;2023-12-20T13:46:50;14.48;;;13.68;;
53961;SDS011;39868;53.398;6.564;2023-12-20T13:49:17;14.02;;;13.30;;
53961;SDS011;39868;53.398;6.564;2023-12-20T13:51:45;14.38;;;13.15;;
53961;SDS011;39868;53.398;6.564;2023-12-20T13:54:13;14.02;;;13.00;;
53961;SDS011;39868;53.398;6.564;2023-12-20T13:56:43;14.00;;;13.05;;
53961;SDS011;39868;53.398;6.564;2023-12-20T13:59:29;14.38;;;13.40;;
53961;SDS011;39868;53.398;6.564;2023-12-20T14:01:57;13.65;;;12.65;;
53961;SDS011;39868;53.398;6.564;2023-12-20T14:04:24;14.50;;;13.23;;
53961;SDS011;39868;53.398;6.564;2023-12-20T14:07:08;13.77;;;12.88;;
53961;SDS011;39868;53.398;6.564;2023-12-20T14:09:39;14.13;;;13.27;;
53961;SDS011;39868;53.398;6.564;2023-12-20T14:12:12;13.55;;;12.90;;
53961;SDS011;39868;53.398;6.564;2023-12-20T14:14:40;14.95;;;14.05;;
53961;SDS011;39868;53.398;6.564;2023-12-20T14:17:07;15.23;;;14.20;;
53961;SDS011;39868;53.398;6.564;2023-12-20T14:19:35;15.93;;;14.82;;
53961;SDS011;39868;53.398;6.564;2023-12-20T14:22:03;15.35;;;14.45;;
53961;SDS011;39868;53.398;6.564;2023-12-20T14:24:31;16.80;;;15.60;;
53961;SDS011;39868;53.398;6.564;2023-12-20T14:26:59;15.70;;;14.75;;
53961;SDS011;39868;53.398;6.564;2023-12-20T14:29:26;14.80;;;13.90;;
53961;SDS011;39868;53.398;6.564;2023-12-20T14:31:53;14.77;;;13.85;;
53961;SDS011;39868;53.398;6.564;2023-12-20T14:34:21;14.75;;;13.80;;
53961;SDS011;39868;53.398;6.564;2023-12-20T14:36:51;14.50;;;13.80;;
53961;SDS011;39868;53.398;6.564;2023-12-20T14:39:19;15.00;;;13.80;;
53961;SDS011;39868;53.398;6.564;2023-12-20T14:41:46;15.63;;;14.63;;
53961;SDS011;39868;53.398;6.564;2023-12-20T14:44:13;14.70;;;13.90;;
53961;SDS011;39868;53.398;6.564;2023-12-20T14:46:41;14.70;;;13.70;;